Time,TemperatureF,DewpointF,PressureIn,WindDirection,WindDirectionDegrees,WindSpeedMPH,WindSpeedGustMPH,Humidity,HourlyPrecipIn,Conditions,Clouds,dailyrainin,SolarRadiationWatts/m^2,SoftwareType,DateUTC
2013-07-05 00:12:00,74.0,70.0,30.27,West,259,0.0,0.0,88,0.00,,,0.00,0.000000,,2013-07-05 04:12:00,
2013-07-05 00:22:00,74.0,70.0,30.27,West,259,0.0,0.0,88,0.00,,,0.00,0.000000,,2013-07-05 04:22:00,
2013-07-05 00:33:00,74.0,71.0,30.27,West,259,0.0,0.0,89,0.00,,,0.00,0.000000,,2013-07-05 04:33:00,
2013-07-05 00:43:00,74.0,71.0,30.27,West,259,0.0,0.0,89,0.00,,,0.00,0.000000,,2013-07-05 04:43:00,
2013-07-05 00:53:00,74.0,71.0,30.28,West,259,0.0,0.0,90,0.00,,,0.00,0.000000,,2013-07-05 04:53:00,
2013-07-05 01:12:00,74.0,71.0,30.28,West,259,0.0,0.0,90,0.00,,,0.00,0.000000,,2013-07-05 05:12:00,
2013-07-05 01:22:00,74.0,71.0,30.27,West,259,0.0,0.0,90,0.00,,,0.00,0.000000,,2013-07-05 05:22:00,
2013-07-05 01:43:00,73.0,70.0,30.27,West,259,0.0,0.0,91,0.00,,,0.00,0.000000,,2013-07-05 05:43:00,
2013-07-05 01:52:00,73.0,70.0,30.27,West,259,0.0,0.0,91,0.00,,,0.00,0.000000,,2013-07-05 05:52:00,
2013-07-05 02:02:00,73.0,70.0,30.27,West,259,0.0,0.0,91,0.00,,,0.00,0.000000,,2013-07-05 06:02:00,
2013-07-05 02:13:00,73.0,71.0,30.27,West,259,0.0,0.0,92,0.00,,,0.00,0.000000,,2013-07-05 06:13:00,
2013-07-05 02:23:00,73.0,71.0,30.27,West,259,0.0,0.0,92,0.00,,,0.00,0.000000,,2013-07-05 06:23:00,
2013-07-05 02:34:00,72.0,70.0,30.27,SE,135,0.0,3.0,92,0.00,,,0.00,0.000000,,2013-07-05 06:34:00,
2013-07-05 02:44:00,72.0,70.0,30.27,SE,135,0.0,0.0,92,0.00,,,0.00,0.000000,,2013-07-05 06:44:00,
2013-07-05 02:53:00,72.0,70.0,30.27,SE,135,0.0,0.0,92,0.00,,,0.00,0.000000,,2013-07-05 06:53:00,
2013-07-05 03:02:00,72.0,70.0,30.27,SE,135,0.0,0.0,92,0.00,,,0.00,0.000000,,2013-07-05 07:02:00,
2013-07-05 03:12:00,72.0,70.0,30.27,SE,135,0.0,0.0,93,0.00,,,0.00,0.000000,,2013-07-05 07:12:00,
2013-07-05 03:23:00,72.0,70.0,30.27,SE,135,0.0,0.0,93,0.00,,,0.00,0.000000,,2013-07-05 07:23:00,
2013-07-05 03:34:00,72.0,70.0,30.27,SE,135,0.0,1.0,93,0.00,,,0.00,0.000000,,2013-07-05 07:34:00,
2013-07-05 03:43:00,72.0,70.0,30.27,SE,135,0.0,0.0,93,0.00,,,0.00,0.000000,,2013-07-05 07:43:00,
2013-07-05 03:53:00,72.0,70.0,30.27,SE,135,0.0,0.0,93,0.00,,,0.00,0.000000,,2013-07-05 07:53:00,
2013-07-05 04:03:00,72.0,70.0,30.27,SE,135,0.0,0.0,93,0.00,,,0.00,0.000000,,2013-07-05 08:03:00,
2013-07-05 04:23:00,72.0,70.0,30.27,ENE,63,0.0,0.0,93,0.00,,,0.00,0.000000,,2013-07-05 08:23:00,
2013-07-05 04:33:00,72.0,70.0,30.27,ENE,63,0.0,0.0,94,0.00,,,0.00,0.000000,,2013-07-05 08:33:00,
2013-07-05 04:44:00,72.0,70.0,30.27,ENE,63,0.0,0.0,94,0.00,,,0.00,0.000000,,2013-07-05 08:44:00,
2013-07-05 04:55:00,72.0,70.0,30.27,ENE,63,0.0,0.0,94,0.00,,,0.00,0.000000,,2013-07-05 08:55:00,
2013-07-05 05:16:00,72.0,70.0,30.27,ENE,63,0.0,0.0,94,0.00,,,0.00,0.000000,,2013-07-05 09:16:00,
2013-07-05 05:27:00,72.0,70.0,30.27,ENE,63,0.0,0.0,94,0.00,,,0.00,0.000000,,2013-07-05 09:27:00,
2013-07-05 05:37:00,72.0,70.0,30.28,ENE,63,0.0,0.0,94,0.00,,,0.00,0.000000,,2013-07-05 09:37:00,
2013-07-05 05:48:00,71.0,69.0,30.28,ENE,63,0.0,0.0,94,0.00,,,0.00,0.000000,,2013-07-05 09:48:00,
2013-07-05 05:57:00,71.0,69.0,30.28,ENE,63,0.0,0.0,94,0.00,,,0.00,0.000000,,2013-07-05 09:57:00,
2013-07-05 06:08:00,71.0,69.0,30.28,ENE,63,0.0,0.0,94,0.00,,,0.00,11.000000,,2013-07-05 10:08:00,
2013-07-05 06:19:00,71.0,69.0,30.28,ENE,63,0.0,0.0,94,0.00,,,0.00,21.000000,,2013-07-05 10:19:00,
2013-07-05 06:37:00,72.0,70.0,30.29,ENE,63,0.0,0.0,94,0.00,,,0.00,49.000000,,2013-07-05 10:37:00,
2013-07-05 06:47:00,72.0,70.0,30.29,ENE,63,0.0,0.0,94,0.00,,,0.00,49.000000,,2013-07-05 10:47:00,
2013-07-05 06:58:00,72.0,70.0,30.29,ENE,63,0.0,0.0,94,0.00,,,0.00,81.000000,,2013-07-05 10:58:00,
2013-07-05 07:10:00,73.0,71.0,30.28,NNE,26,0.0,1.0,94,0.00,,,0.00,121.000000,,2013-07-05 11:10:00,
2013-07-05 07:18:00,73.0,71.0,30.28,NNE,26,0.0,1.0,94,0.00,,,0.00,121.000000,,2013-07-05 11:18:00,
2013-07-05 07:25:00,74.0,72.0,30.29,NNE,27,0.0,0.0,93,0.00,,,0.00,167.000000,,2013-07-05 11:25:00,
2013-07-05 07:37:00,75.0,73.0,30.28,NNE,27,0.0,0.0,92,0.00,,,0.00,211.000000,,2013-07-05 11:37:00,
2013-07-05 07:48:00,75.0,73.0,30.28,NNE,27,0.0,0.0,92,0.00,,,0.00,211.000000,,2013-07-05 11:48:00,
2013-07-05 08:00:00,76.0,73.0,30.29,NNW,342,0.0,1.0,91,0.00,,,0.00,257.000000,,2013-07-05 12:00:00,
2013-07-05 08:10:00,77.0,73.0,30.28,South,181,0.0,2.0,88,0.00,,,0.00,304.000000,,2013-07-05 12:10:00,
2013-07-05 08:16:00,77.0,73.0,30.28,South,181,0.0,2.0,88,0.00,,,0.00,304.000000,,2013-07-05 12:16:00,
2013-07-05 08:26:00,78.0,74.0,30.29,NW,316,0.0,2.0,88,0.00,,,0.00,348.000000,,2013-07-05 12:26:00,
2013-07-05 08:37:00,78.0,74.0,30.29,West,277,0.0,3.0,87,0.00,,,0.00,404.000000,,2013-07-05 12:37:00,
2013-07-05 08:49:00,78.0,74.0,30.29,West,277,0.0,3.0,87,0.00,,,0.00,404.000000,,2013-07-05 12:49:00,
2013-07-05 09:00:00,79.0,74.0,30.29,WSW,242,0.0,1.0,85,0.00,,,0.00,434.000000,,2013-07-05 13:00:00,
2013-07-05 09:07:00,80.0,75.0,30.29,NNW,348,0.0,2.0,84,0.00,,,0.00,513.000000,,2013-07-05 13:07:00,
2013-07-05 09:14:00,80.0,75.0,30.29,NNW,348,0.0,2.0,84,0.00,,,0.00,513.000000,,2013-07-05 13:14:00,
2013-07-05 09:39:00,81.0,75.0,30.28,East,84,0.0,2.0,83,0.00,,,0.00,570.000000,,2013-07-05 13:39:00,
2013-07-05 09:49:00,81.0,75.0,30.28,East,84,0.0,2.0,83,0.00,,,0.00,570.000000,,2013-07-05 13:49:00,
2013-07-05 09:58:00,82.0,76.0,30.27,SSE,152,0.0,1.0,81,0.00,,,0.00,608.000000,,2013-07-05 13:58:00,
2013-07-05 10:07:00,82.0,76.0,30.27,East,82,0.0,2.0,82,0.00,,,0.00,650.000000,,2013-07-05 14:07:00,
2013-07-05 10:16:00,82.0,76.0,30.27,East,82,0.0,2.0,82,0.00,,,0.00,650.000000,,2013-07-05 14:16:00,
2013-07-05 10:28:00,82.0,76.0,30.27,ENE,70,0.0,2.0,82,0.00,,,0.00,689.000000,,2013-07-05 14:28:00,
2013-07-05 10:46:00,83.0,77.0,30.27,ESE,109,0.0,1.0,82,0.00,,,0.00,731.000000,,2013-07-05 14:46:00,
2013-07-05 10:58:00,84.0,76.0,30.27,East,94,0.0,3.0,77,0.00,,,0.00,747.000000,,2013-07-05 14:58:00,
2013-07-05 11:07:00,84.0,76.0,30.27,ENE,65,0.0,3.0,77,0.00,,,0.00,773.000000,,2013-07-05 15:07:00,
2013-07-05 11:17:00,84.0,76.0,30.27,ENE,65,0.0,3.0,77,0.00,,,0.00,773.000000,,2013-07-05 15:17:00,
2013-07-05 11:25:00,85.0,77.0,30.27,SE,127,0.0,1.0,77,0.00,,,0.00,898.000000,,2013-07-05 15:25:00,
2013-07-05 11:34:00,86.0,78.0,30.27,SSE,167,0.0,2.0,77,0.00,,,0.00,835.000000,,2013-07-05 15:34:00,
2013-07-05 11:43:00,86.0,78.0,30.27,SSE,167,0.0,2.0,77,0.00,,,0.00,835.000000,,2013-07-05 15:43:00,
2013-07-05 11:53:00,86.0,76.0,30.26,ENE,61,0.0,2.0,73,0.00,,,0.00,847.000000,,2013-07-05 15:53:00,
2013-07-05 12:44:00,87.0,76.0,30.25,South,181,0.0,2.0,69,0.00,,,0.00,902.000000,,2013-07-05 16:44:00,
2013-07-05 13:12:00,86.0,74.0,30.25,SE,138,0.0,3.0,67,0.00,,,0.00,942.000000,,2013-07-05 17:12:00,
2013-07-05 13:33:00,87.0,74.0,30.25,East,95,0.0,3.0,66,0.00,,,0.00,916.000000,,2013-07-05 17:33:00,
2013-07-05 13:53:00,87.0,74.0,30.24,SSW,203,0.0,3.0,66,0.00,,,0.00,942.000000,,2013-07-05 17:53:00,
2013-07-05 14:02:00,87.0,74.0,30.24,SSW,192,0.0,1.0,66,0.00,,,0.00,951.000000,,2013-07-05 18:02:00,
2013-07-05 14:11:00,87.0,74.0,30.24,SSW,192,0.0,1.0,66,0.00,,,0.00,951.000000,,2013-07-05 18:11:00,
2013-07-05 14:22:00,87.0,76.0,30.24,North,5,0.0,3.0,70,0.00,,,0.00,923.000000,,2013-07-05 18:22:00,
2013-07-05 14:43:00,86.0,75.0,30.23,East,82,0.0,3.0,69,0.00,,,0.00,954.000000,,2013-07-05 18:43:00,
2013-07-05 14:53:00,87.0,76.0,30.23,SE,139,0.0,3.0,69,0.00,,,0.00,875.000000,,2013-07-05 18:53:00,
2013-07-05 15:12:00,87.0,72.0,30.22,East,88,0.0,5.0,62,0.00,,,0.00,854.000000,,2013-07-05 19:12:00,
2013-07-05 15:43:00,87.0,73.0,30.22,ESE,103,0.0,2.0,63,0.00,,,0.00,812.000000,,2013-07-05 19:43:00,
2013-07-05 15:53:00,88.0,73.0,30.21,West,279,0.0,3.0,61,0.00,,,0.00,782.000000,,2013-07-05 19:53:00,
2013-07-05 16:02:00,88.0,73.0,30.21,NE,44,0.0,4.0,61,0.00,,,0.00,744.000000,,2013-07-05 20:02:00,
2013-07-05 16:11:00,88.0,73.0,30.21,NE,44,0.0,4.0,61,0.00,,,0.00,744.000000,,2013-07-05 20:11:00,
2013-07-05 16:43:00,87.0,75.0,30.20,West,259,0.0,2.0,68,0.00,,,0.00,708.000000,,2013-07-05 20:43:00,
2013-07-05 16:53:00,86.0,76.0,30.19,ENE,70,0.0,2.0,73,0.00,,,0.00,605.000000,,2013-07-05 20:53:00,
2013-07-05 17:01:00,86.0,76.0,30.19,ESE,109,0.0,2.0,73,0.00,,,0.00,496.000000,,2013-07-05 21:01:00,
2013-07-05 17:12:00,86.0,76.0,30.19,ESE,109,0.0,2.0,73,0.00,,,0.00,496.000000,,2013-07-05 21:12:00,
2013-07-05 17:22:00,84.0,75.0,30.19,WSW,250,0.0,4.0,75,0.00,,,0.00,134.000000,,2013-07-05 21:22:00,
2013-07-05 17:43:00,84.0,76.0,30.18,WNW,284,0.0,1.0,76,0.00,,,0.00,79.000000,,2013-07-05 21:43:00,
2013-07-05 17:53:00,83.0,75.0,30.18,SE,128,0.0,2.0,76,0.00,,,0.00,91.000000,,2013-07-05 21:53:00,
2013-07-05 18:02:00,83.0,75.0,30.18,East,96,0.0,2.0,77,0.00,,,0.00,47.000000,,2013-07-05 22:02:00,
2013-07-05 18:12:00,83.0,75.0,30.18,East,96,0.0,2.0,77,0.00,,,0.00,47.000000,,2013-07-05 22:12:00,
2013-07-05 18:22:00,83.0,75.0,30.17,ENE,57,0.0,3.0,76,0.00,,,0.00,56.000000,,2013-07-05 22:22:00,
2013-07-05 18:34:00,83.0,75.0,30.17,NNW,333,0.0,1.0,77,0.00,,,0.00,44.000000,,2013-07-05 22:34:00,
2013-07-05 18:43:00,83.0,75.0,30.17,NNW,333,0.0,1.0,77,0.00,,,0.00,44.000000,,2013-07-05 22:43:00,